Time;durP1;ratioP1;P1;durP2;ratioP2;P2;SDS_P1;SDS_P2;PMS_P1;PMS_P2;Temp;Humidity;BMP_temperature;BMP_pressure;BME280_temperature;BME280_humidity;BME280_pressure;Samples;Min_cycle;Max_cycle;Signal;HPM_P1;HPM_P2
2024/03/21 00:03:00;;;;;;;6.70;3.43;;;;;;;13.33;54.96;99008.03;6710304;29;20253;-86
2024/03/21 00:06:22;;;;;;;5.77;3.27;;;;;;;13.22;55.53;99019.56;6710030;29;20307;-85
2024/03/21 00:09:44;;;;;;;10.00;3.60;;;;;;;13.05;56.23;99012.97;6709419;29;20293;-85
2024/03/21 00:13:04;;;;;;;4.10;3.70;;;;;;;13.10;56.30;99003.16;6709207;29;20311;-86
2024/03/21 00:16:26;;;;;;;5.60;3.93;;;;;;;13.08;55.58;98999.84;6707776;29;20272;-85
2024/03/21 00:19:58;;;;;;;7.60;3.20;;;;;;;12.96;55.72;98969.09;6683569;29;20608;-85
2024/03/21 00:23:20;;;;;;;5.30;3.70;;;;;;;13.17;55.94;99014.78;6666197;29;20708;-85
2024/03/21 00:26:40;;;;;;;5.27;3.20;;;;;;;12.78;56.75;99014.94;6684296;29;20218;-85
2024/03/21 00:30:02;;;;;;;4.43;3.37;;;;;;;13.22;56.07;98997.91;6682892;29;20237;-86
2024/03/21 00:33:24;;;;;;;5.47;3.73;;;;;;;13.49;55.28;99000.22;6683448;29;20225;-85
2024/03/21 00:36:46;;;;;;;5.00;3.63;;;;;;;13.56;54.86;98997.44;6683828;29;20613;-85
2024/03/21 00:40:09;;;;;;;3.50;3.20;;;;;;;13.48;55.07;98993.16;6683056;29;20237;-85
2024/03/21 00:43:57;;;;;;;5.23;3.47;;;;;;;12.33;55.11;98839.34;6682993;29;20603;-86
2024/03/21 00:47:34;;;;;;;3.70;3.40;;;;;;;13.52;55.02;98990.81;6677591;29;20697;-85
2024/03/21 00:51:26;;;;;;;4.03;3.07;;;;;;;13.56;54.90;98982.03;6680972;29;20258;-85
2024/03/21 00:55:06;;;;;;;4.37;3.33;;;;;;;13.18;55.36;98980.41;6683140;29;20212;-85
2024/03/21 01:02:24;;;;;;;4.73;3.47;;;;;;;12.91;54.50;98876.88;6681635;29;20209;-85
2024/03/21 01:05:54;;;;;;;4.07;3.77;;;;;;;13.51;53.39;98956.66;6682675;29;20602;-85
2024/03/21 01:13:44;;;;;;;6.63;3.70;;;;;;;12.82;55.99;98991.81;6657685;29;20259;-86
2024/03/21 01:17:07;;;;;;;6.23;3.60;;;;;;;12.77;56.46;98979.97;6683762;29;20234;-85
2024/03/21 01:20:29;;;;;;;5.60;3.20;;;;;;;13.27;55.23;98985.34;6682907;29;20229;-86
2024/03/21 01:23:50;;;;;;;4.20;3.40;;;;;;;12.91;56.06;98973.44;6682154;29;20328;-86
2024/03/21 01:27:12;;;;;;;3.83;2.93;;;;;;;12.37;57.65;98976.59;6682417;29;20748;-85
2024/03/21 01:30:34;;;;;;;5.00;3.97;;;;;;;12.25;58.40;98978.28;6682332;29;20378;-86
2024/03/21 01:33:57;;;;;;;3.40;3.10;;;;;;;12.53;57.77;98975.28;6682113;29;20211;-86
2024/03/21 01:37:18;;;;;;;3.70;3.40;;;;;;;12.84;56.78;98969.94;6681508;29;20353;-85
2024/03/21 01:40:41;;;;;;;4.77;3.50;;;;;;;12.61;56.77;98966.91;6681859;29;20386;-86
2024/03/21 01:44:01;;;;;;;3.77;3.20;;;;;;;11.93;57.53;98856.75;6681665;29;20769;-86
2024/03/21 01:47:23;;;;;;;5.70;3.73;;;;;;;12.80;56.55;98960.63;6681838;29;20209;-86
2024/03/21 01:50:46;;;;;;;3.83;3.53;;;;;;;12.61;56.81;98975.03;6681434;29;20320;-86
2024/03/21 01:54:08;;;;;;;4.97;3.77;;;;;;;12.22;58.75;98964.34;6681754;29;20346;-86
2024/03/21 01:57:30;;;;;;;4.47;3.83;;;;;;;12.58;57.64;98962.75;6681267;29;20214;-85
2024/03/21 02:00:51;;;;;;;5.50;3.90;;;;;;;12.44;58.17;98958.44;6680871;29;20320;-86
2024/03/21 02:04:13;;;;;;;4.47;3.70;;;;;;;12.71;57.50;98970.00;6681672;29;20369;-86
2024/03/21 02:07:36;;;;;;;3.83;3.53;;;;;;;12.61;57.22;98956.09;6681897;29;20741;-86
2024/03/21 02:10:57;;;;;;;4.87;3.93;;;;;;;12.33;58.13;98969.13;6679996;29;20241;-86
2024/03/21 02:14:20;;;;;;;8.43;3.70;;;;;;;12.56;57.79;98964.84;6681024;29;20274;-86
2024/03/21 02:17:41;;;;;;;5.27;3.73;;;;;;;12.61;56.86;98965.06;6679820;29;20214;-86
2024/03/21 02:21:04;;;;;;;4.47;4.07;;;;;;;12.00;59.29;98965.63;6679648;29;20764;-86
2024/03/21 02:24:26;;;;;;;4.40;4.00;;;;;;;12.06;59.85;98967.50;6680341;29;20241;-86
2024/03/21 02:27:47;;;;;;;4.40;4.00;;;;;;;12.46;58.92;98972.59;6680712;29;20217;-85
2024/03/21 02:31:08;;;;;;;5.23;3.90;;;;;;;11.82;60.25;98966.28;6680213;29;20310;-86
2024/03/21 02:34:30;;;;;;;4.30;4.00;;;;;;;12.26;59.16;98965.56;6680245;29;20218;-86
2024/03/21 02:37:52;;;;;;;10.07;3.73;;;;;;;12.66;58.72;98967.09;6680304;29;20220;-86
2024/03/21 02:41:23;;;;;;;3.70;3.40;;;;;;;12.82;57.30;98955.81;6680232;29;20284;-86
2024/03/21 02:45:25;;;;;;;5.10;4.07;;;;;;;12.99;57.29;98968.63;6680571;29;20674;-86
2024/03/21 02:49:39;;;;;;;5.93;4.60;;;;;;;12.60;58.18;98973.38;6680656;29;20212;-86
2024/03/21 02:53:00;;;;;;;5.70;3.50;;;;;;;12.95;57.53;98962.03;6680419;29;20313;-86
2024/03/21 02:56:23;;;;;;;4.97;4.13;;;;;;;13.01;57.10;98966.56;6680457;29;20644;-86
2024/03/21 02:59:44;;;;;;;6.43;4.10;;;;;;;12.37;58.96;98975.75;6679748;29;20711;-86
2024/03/21 03:03:07;;;;;;;6.33;4.50;;;;;;;12.85;58.96;98968.88;6679964;29;20297;-86
2024/03/21 03:06:27;;;;;;;5.00;4.17;;;;;;;13.32;57.39;98968.44;6680530;29;20238;-86
2024/03/21 03:09:49;;;;;;;4.23;3.70;;;;;;;13.35;57.17;98965.31;6680049;29;20234;-86
2024/03/21 03:13:10;;;;;;;4.57;3.90;;;;;;;12.77;58.37;98967.28;6686315;29;20247;-86
2024/03/21 03:16:32;;;;;;;4.43;4.03;;;;;;;12.79;58.65;98972.47;6705504;29;20209;-86
2024/03/21 03:19:52;;;;;;;4.60;3.80;;;;;;;13.17;58.11;98973.34;6705088;29;20702;-86
2024/03/21 03:23:14;;;;;;;6.90;4.23;;;;;;;13.42;57.50;98971.50;6705854;29;20265;-86
2024/03/21 03:26:34;;;;;;;5.97;4.10;;;;;;;12.14;60.58;98981.63;6705312;29;20320;-86
2024/03/21 03:29:57;;;;;;;5.40;4.17;;;;;;;13.00;59.08;98978.44;6708772;29;20234;-86
2024/03/21 03:36:57;;;;;;;4.90;4.30;;;;;;;13.07;58.56;98994.63;6709865;29;20201;-86
2024/03/21 03:40:19;;;;;;;4.73;3.60;;;;;;;13.36;57.99;98996.75;6709851;29;20319;-85
2024/03/21 03:43:41;;;;;;;6.87;3.90;;;;;;;13.41;57.95;99005.06;6710241;29;20543;-86
2024/03/21 03:47:04;;;;;;;6.03;3.83;;;;;;;13.61;57.51;99003.88;6710362;29;20587;-86
2024/03/21 03:50:25;;;;;;;6.70;3.97;;;;;;;13.81;56.85;99003.75;6709113;29;20234;-85
2024/03/21 03:53:48;;;;;;;4.93;4.03;;;;;;;13.92;55.87;99000.31;6710255;29;20273;-86
2024/03/21 03:57:09;;;;;;;4.00;3.60;;;;;;;13.95;55.55;99007.97;6710199;29;20214;-86
2024/03/21 04:00:30;;;;;;;5.53;3.87;;;;;;;13.45;55.96;98977.31;6709625;29;21031;-86
2024/03/21 04:03:52;;;;;;;4.30;3.87;;;;;;;12.74;58.83;99008.28;6709158;29;20216;-86
2024/03/21 04:07:14;;;;;;;4.80;4.30;;;;;;;12.97;59.38;99007.78;6709150;29;20218;-85
2024/03/21 04:10:34;;;;;;;4.07;3.53;;;;;;;13.25;58.09;99014.53;6708214;29;20797;-85
2024/03/21 04:13:56;;;;;;;7.00;4.17;;;;;;;13.31;58.04;99010.13;6708607;29;20202;-86
2024/03/21 04:17:17;;;;;;;5.33;4.33;;;;;;;13.52;57.50;99026.84;6708430;29;20304;-86
2024/03/21 04:20:39;;;;;;;4.77;4.23;;;;;;;13.52;57.64;99031.47;6707860;29;20649;-85
2024/03/21 04:24:01;;;;;;;4.87;4.07;;;;;;;13.46;57.53;99035.84;6708234;29;20229;-86
2024/03/21 04:27:22;;;;;;;4.50;4.10;;;;;;;13.65;57.25;99037.63;6708022;29;20287;-86
2024/03/21 04:30:43;;;;;;;6.03;3.97;;;;;;;13.81;56.67;99015.38;6707850;29;20612;-86
2024/03/21 04:34:04;;;;;;;5.20;4.30;;;;;;;13.67;56.82;99018.41;6708493;29;20368;-86
2024/03/21 04:37:29;;;;;;;4.67;4.23;;;;;;;13.59;56.32;98978.91;6707810;29;20245;-86
2024/03/21 04:40:50;;;;;;;5.97;4.03;;;;;;;13.91;55.96;99021.16;6706666;29;20255;-86
2024/03/21 04:44:12;;;;;;;5.30;4.03;;;;;;;13.76;55.90;99036.09;6707744;29;20217;-86
2024/03/21 04:47:33;;;;;;;8.20;4.50;;;;;;;13.26;57.20;99035.16;6708648;29;20306;-85
2024/03/21 04:50:55;;;;;;;4.63;3.97;;;;;;;13.34;57.52;99050.31;6706966;29;20574;-85
2024/03/21 04:54:24;;;;;;;5.43;4.50;;;;;;;13.42;57.73;99044.63;6707868;29;20817;-85
2024/03/21 04:57:46;;;;;;;6.83;4.87;;;;;;;13.14;58.08;99045.00;6707289;29;20209;-85
2024/03/21 05:01:07;;;;;;;9.20;4.40;;;;;;;13.33;57.56;99041.34;6706558;29;20374;-86
2024/03/21 05:04:29;;;;;;;7.77;4.83;;;;;;;13.48;57.45;99041.06;6707272;29;20242;-85
2024/03/21 05:07:50;;;;;;;5.07;4.63;;;;;;;13.16;57.73;99044.78;6708224;29;20293;-86
2024/03/21 05:11:13;;;;;;;7.53;5.07;;;;;;;13.18;57.69;99048.94;6707397;29;20253;-86
2024/03/21 05:14:34;;;;;;;10.67;4.70;;;;;;;13.34;57.31;99047.59;6701475;29;20651;-86
2024/03/21 05:17:56;;;;;;;6.87;4.67;;;;;;;13.52;56.66;99043.09;6707956;29;20214;-85
2024/03/21 05:21:16;;;;;;;4.57;4.17;;;;;;;13.60;56.06;99050.16;6706899;29;20266;-85
2024/03/21 05:24:38;;;;;;;8.60;4.57;;;;;;;13.74;55.78;99051.75;6706275;29;20294;-86
2024/03/21 05:28:00;;;;;;;4.73;4.30;;;;;;;13.57;56.10;99045.19;6706879;29;20308;-86
2024/03/21 05:31:23;;;;;;;5.33;4.53;;;;;;;13.58;56.30;99039.53;6688108;29;20230;-86
2024/03/21 05:34:45;;;;;;;5.67;4.27;;;;;;;13.61;56.27;99036.41;6680837;29;20210;-86
2024/03/21 05:38:05;;;;;;;4.97;4.43;;;;;;;13.76;55.45;99028.75;6684065;29;20252;-85
2024/03/21 05:41:27;;;;;;;5.23;4.60;;;;;;;13.23;56.91;99040.16;6683709;29;20726;-86
2024/03/21 05:44:49;;;;;;;5.40;4.10;;;;;;;12.69;56.94;98926.94;6684481;29;20241;-86
2024/03/21 05:48:10;;;;;;;4.70;4.30;;;;;;;13.76;56.42;99039.59;6681411;29;20349;-86
2024/03/21 05:51:31;;;;;;;8.07;4.37;;;;;;;13.83;56.04;99051.25;6680392;29;20235;-87
2024/03/21 05:54:53;;;;;;;7.50;4.53;;;;;;;13.54;56.63;99042.91;6681640;29;20792;-87
2024/03/21 05:58:15;;;;;;;6.63;4.70;;;;;;;13.46;57.24;99054.81;6693193;29;20666;-87
2024/03/21 06:01:39;;;;;;;6.13;5.10;;;;;;;13.67;57.42;99040.09;6700344;29;20242;-87
2024/03/21 06:05:00;;;;;;;9.17;5.00;;;;;;;13.44;58.18;99050.66;6700228;29;20270;-87
2024/03/21 06:08:21;;;;;;;5.03;4.50;;;;;;;13.71;58.15;99042.16;6697751;29;20356;-84
2024/03/21 06:11:42;;;;;;;7.80;4.80;;;;;;;13.61;58.69;99040.97;6706707;29;20685;-86
2024/03/21 06:15:03;;;;;;;8.10;5.07;;;;;;;13.77;58.37;99060.25;6707462;29;20691;-86
2024/03/21 06:18:26;;;;;;;5.60;5.03;;;;;;;13.90;58.26;99057.44;6707924;29;20690;-85
2024/03/21 06:21:48;;;;;;;5.37;4.87;;;;;;;13.86;57.76;99060.81;6707805;29;20237;-86
2024/03/21 06:25:09;;;;;;;6.80;4.20;;;;;;;13.75;58.45;99058.81;6707674;29;20819;-85
2024/03/21 06:28:31;;;;;;;7.23;5.17;;;;;;;14.16;57.61;99068.06;6699011;29;20214;-84
2024/03/21 06:31:52;;;;;;;6.20;5.00;;;;;;;14.23;57.18;99071.59;6682301;29;20231;-83
2024/03/21 06:35:15;;;;;;;6.20;4.70;;;;;;;14.31;56.70;99084.03;6685864;29;20349;-86
2024/03/21 06:38:37;;;;;;;8.23;4.37;;;;;;;14.13;56.70;99094.81;6681879;29;20255;-84
2024/03/21 06:41:58;;;;;;;6.77;5.40;;;;;;;14.37;56.51;99099.44;6681536;29;20321;-85
2024/03/21 06:45:21;;;;;;;5.90;4.80;;;;;;;14.52;56.49;99098.03;6683201;29;20327;-86
2024/03/21 06:48:42;;;;;;;6.23;4.87;;;;;;;14.53;56.21;99097.00;6683671;29;20213;-82
2024/03/21 06:52:05;;;;;;;5.20;4.70;;;;;;;14.47;56.50;99100.59;6691458;29;20213;-87
2024/03/21 06:55:25;;;;;;;5.03;4.53;;;;;;;14.85;55.53;99106.69;6707849;29;20282;-86
2024/03/21 06:58:47;;;;;;;9.00;5.50;;;;;;;14.52;55.91;99114.31;6703201;29;20643;-86
2024/03/21 07:02:08;;;;;;;7.10;5.40;;;;;;;14.31;56.60;99124.72;6704819;29;20219;-86
2024/03/21 07:05:29;;;;;;;6.43;5.07;;;;;;;14.81;56.38;99131.81;6710076;29;20288;-86
2024/03/21 07:08:52;;;;;;;7.67;4.57;;;;;;;14.55;55.71;99056.91;6710952;29;20679;-86
2024/03/21 07:12:13;;;;;;;9.30;4.80;;;;;;;15.13;55.39;99117.88;6710995;29;20733;-85
2024/03/21 07:15:34;;;;;;;5.27;4.77;;;;;;;15.27;55.72;99141.09;6711986;29;20295;-85
2024/03/21 07:18:55;;;;;;;7.77;5.13;;;;;;;15.16;55.06;99143.75;6734051;29;20221;-85
2024/03/21 07:22:16;;;;;;;6.40;4.73;;;;;;;15.61;54.57;99145.09;6705941;29;20398;-85
2024/03/21 07:25:42;;;;;;;11.90;5.00;;;;;;;15.34;54.70;99141.06;6684859;29;20654;-85
2024/03/21 07:29:03;;;;;;;8.47;4.83;;;;;;;15.56;54.40;99150.38;6685115;29;20235;-85
2024/03/21 07:32:24;;;;;;;5.10;4.40;;;;;;;15.64;53.74;99142.75;6684220;29;20703;-86
2024/03/21 07:35:52;;;;;;;9.13;5.80;;;;;;;15.72;54.23;99147.03;6690290;29;20231;-86
2024/03/21 07:39:14;;;;;;;12.30;5.00;;;;;;;15.99;53.29;99140.19;6708816;29;20233;-86
2024/03/21 07:42:37;;;;;;;21.53;5.50;;;;;;;15.77;54.17;99139.03;6682564;29;20220;-85
2024/03/21 07:45:57;;;;;;;11.87;5.63;;;;;;;16.11;53.67;99146.50;6685456;29;20339;-85
2024/03/21 07:49:19;;;;;;;14.40;4.90;;;;;;;16.35;53.01;99159.09;6682824;29;20718;-85
2024/03/21 07:52:40;;;;;;;18.50;8.40;;;;;;;16.02;52.99;99158.75;6695923;29;20695;-86
2024/03/21 07:56:01;;;;;;;8.20;6.13;;;;;;;16.50;52.40;99163.06;6710833;29;20233;-86
2024/03/21 07:59:24;;;;;;;8.47;5.77;;;;;;;16.69;51.91;99163.81;6710088;29;20295;-85
2024/03/21 08:02:46;;;;;;;9.73;5.30;;;;;;;16.37;53.39;99165.13;6710120;29;20308;-86
2024/03/21 08:06:06;;;;;;;10.10;5.00;;;;;;;17.03;51.85;99152.06;6710465;29;20299;-85
2024/03/21 08:09:28;;;;;;;6.97;5.07;;;;;;;16.76;52.44;99113.59;6710210;29;20315;-86
2024/03/21 08:12:48;;;;;;;11.17;5.10;;;;;;;17.28;51.50;99156.19;6710870;29;20300;-84
2024/03/21 08:16:11;;;;;;;10.83;5.70;;;;;;;16.90;52.27;99158.59;6710596;29;20213;-84
2024/03/21 08:19:33;;;;;;;11.33;5.30;;;;;;;17.28;51.31;99174.47;6711500;29;20321;-84
2024/03/21 08:22:54;;;;;;;13.27;5.20;;;;;;;17.46;51.31;99172.44;6711814;29;20280;-84
2024/03/21 08:26:16;;;;;;;9.70;5.40;;;;;;;17.42;50.82;99181.34;6712148;29;20326;-85
2024/03/21 08:29:38;;;;;;;16.10;6.23;;;;;;;17.45;51.19;99181.69;6711459;29;20262;-85
2024/03/21 08:33:01;;;;;;;8.10;5.10;;;;;;;17.41;51.09;99176.97;6698928;29;20669;-83
2024/03/21 08:36:23;;;;;;;6.40;5.10;;;;;;;17.57;50.92;99171.59;6694536;29;20202;-85
2024/03/21 08:39:44;;;;;;;6.90;4.70;;;;;;;17.91;49.63;99187.03;6709266;29;20241;-84
2024/03/21 08:43:06;;;;;;;8.53;4.80;;;;;;;18.24;49.85;99178.94;6710523;29;20237;-84
2024/03/21 08:46:26;;;;;;;5.43;4.93;;;;;;;18.29;49.05;99170.00;6703353;29;20378;-85
2024/03/21 08:49:49;;;;;;;5.97;4.50;;;;;;;18.72;48.31;99201.13;6684519;29;20229;-85
2024/03/21 08:53:11;;;;;;;7.80;3.87;;;;;;;18.48;48.91;99202.34;6687985;29;20890;-81
2024/03/21 08:56:34;;;;;;;8.57;4.90;;;;;;;18.47;49.05;99219.81;6683179;29;20753;-82
2024/03/21 08:59:54;;;;;;;5.97;4.40;;;;;;;18.45;49.69;99218.41;6683577;29;20705;-84
2024/03/21 09:03:16;;;;;;;5.30;4.33;;;;;;;18.76;49.07;99215.13;6666576;29;20225;-81
2024/03/21 09:06:38;;;;;;;6.20;4.50;;;;;;;18.62;48.93;99221.97;6684573;29;20229;-83
2024/03/21 09:09:59;;;;;;;8.83;4.40;;;;;;;18.55;48.88;99216.66;6683709;29;20240;-83
2024/03/21 09:13:20;;;;;;;4.63;3.77;;;;;;;18.68;48.52;99221.81;6683400;29;20221;-84
2024/03/21 09:16:42;;;;;;;8.27;4.30;;;;;;;18.98;48.19;99216.03;6683985;29;20296;-82
2024/03/21 09:20:04;;;;;;;7.80;4.97;;;;;;;19.03;47.75;99213.38;6683325;29;20313;-82
2024/03/21 09:23:27;;;;;;;9.40;4.70;;;;;;;19.26;47.59;99208.59;6683934;29;20311;-83
2024/03/21 09:26:47;;;;;;;10.97;4.23;;;;;;;19.95;46.17;99202.41;6705239;29;20224;-83
2024/03/21 09:30:10;;;;;;;8.73;4.43;;;;;;;20.01;46.43;99193.19;6708209;29;20305;-84
2024/03/21 09:33:32;;;;;;;6.00;4.47;;;;;;;21.09;44.88;99193.72;6708442;29;20688;-84
2024/03/21 09:36:53;;;;;;;4.27;3.87;;;;;;;21.16;43.91;99209.97;6700967;29;20346;-84
2024/03/21 09:40:17;;;;;;;7.30;4.00;;;;;;;20.26;43.48;99138.72;6697189;29;20254;-84
2024/03/21 09:43:37;;;;;;;5.60;4.17;;;;;;;20.31;44.94;99193.56;6682604;29;20305;-83
2024/03/21 09:46:59;;;;;;;8.47;4.00;;;;;;;20.57;44.76;99209.13;6683363;29;20302;-83
2024/03/21 09:50:21;;;;;;;4.37;3.63;;;;;;;21.01;43.92;99224.38;6682500;29;20252;-83
2024/03/21 09:53:42;;;;;;;4.70;3.83;;;;;;;20.62;43.98;99228.38;6683595;29;20237;-84
2024/03/21 09:57:06;;;;;;;8.63;4.03;;;;;;;20.70;44.45;99229.81;6682745;29;20282;-83
2024/03/21 10:00:27;;;;;;;7.53;4.40;;;;;;;20.72;44.00;99228.47;6681997;29;20656;-82
2024/03/21 10:03:49;;;;;;;6.57;4.67;;;;;;;21.02;44.39;99228.78;6683646;29;20699;-83
2024/03/21 10:07:17;;;;;;;5.63;4.97;;;;;;;20.21;46.06;99231.78;6684167;29;20395;-84
2024/03/21 10:10:39;;;;;;;10.90;6.03;;;;;;;20.78;44.58;99232.91;6682152;29;20918;-84
2024/03/21 10:14:01;;;;;;;9.37;5.97;;;;;;;21.01;44.30;99227.13;6682274;29;20282;-84
2024/03/21 10:17:23;;;;;;;7.73;4.87;;;;;;;20.95;44.94;99225.44;6683008;29;20312;-83
2024/03/21 10:20:44;;;;;;;7.00;4.83;;;;;;;20.99;44.81;99226.53;6690827;29;20230;-83
2024/03/21 10:24:07;;;;;;;6.57;5.90;;;;;;;20.79;43.87;99218.13;6705555;29;20227;-83
2024/03/21 10:27:30;;;;;;;8.30;5.93;;;;;;;21.40;42.87;99237.56;6682596;29;20296;-84
2024/03/21 10:30:54;;;;;;;9.70;7.53;;;;;;;21.47;42.00;99223.59;6681410;29;20235;-83
2024/03/21 10:34:16;;;;;;;11.20;7.50;;;;;;;21.55;42.35;99223.13;6681828;29;20209;-83
2024/03/21 10:37:37;;;;;;;10.90;7.90;;;;;;;21.89;42.15;99213.47;6693529;29;20298;-83
2024/03/21 10:41:02;;;;;;;9.70;7.70;;;;;;;22.30;40.83;99235.28;6701153;29;20229;-84
2024/03/21 10:44:24;;;;;;;8.20;6.87;;;;;;;22.29;41.04;99225.41;6686660;29;20378;-83
2024/03/21 10:47:51;;;;;;;7.60;6.70;;;;;;;21.58;42.41;99234.38;6698066;29;20291;-83
2024/03/21 10:51:14;;;;;;;8.83;6.63;;;;;;;22.23;41.83;99229.22;6711784;29;20284;-83
2024/03/21 10:54:39;;;;;;;8.93;7.20;;;;;;;22.17;41.58;99232.22;6710617;29;20233;-83
2024/03/21 10:58:02;;;;;;;11.30;7.53;;;;;;;22.63;41.11;99236.78;6706802;29;20284;-83
2024/03/21 11:01:42;;;;;;;12.53;8.30;;;;;;;22.42;41.08;99235.88;6685043;29;20320;-84
2024/03/21 11:05:11;;;;;;;11.13;8.00;;;;;;;22.20;40.92;99229.75;6685022;29;20220;-81
2024/03/21 11:08:32;;;;;;;8.27;7.27;;;;;;;22.20;41.27;99232.50;6702352;29;20257;-82
2024/03/21 11:11:54;;;;;;;9.30;7.63;;;;;;;22.79;40.38;99231.06;6711219;29;20742;-83
2024/03/21 11:15:16;;;;;;;10.07;6.83;;;;;;;22.64;40.64;99222.78;6710475;29;20268;-84
2024/03/21 11:18:36;;;;;;;10.03;7.67;;;;;;;22.70;39.93;99237.34;6701522;29;20301;-84
2024/03/21 11:21:59;;;;;;;11.23;7.40;;;;;;;22.88;39.03;99228.56;6685135;29;20978;-83
2024/03/21 11:25:20;;;;;;;11.63;7.50;;;;;;;22.26;40.18;99238.84;6686026;29;20229;-83
2024/03/21 11:28:42;;;;;;;9.63;6.97;;;;;;;22.00;40.42;99248.91;6684350;29;20217;-83
2024/03/21 11:32:02;;;;;;;10.47;6.67;;;;;;;22.35;39.44;99235.31;6684914;29;20233;-83
2024/03/21 11:35:24;;;;;;;8.47;6.40;;;;;;;21.66;40.27;99250.34;6685316;29;20256;-83
2024/03/21 11:38:47;;;;;;;8.10;6.40;;;;;;;22.57;39.65;99252.44;6684754;29;20216;-83
2024/03/21 11:42:10;;;;;;;11.50;6.73;;;;;;;22.17;40.21;99245.97;6684406;29;20222;-82
2024/03/21 11:45:30;;;;;;;7.80;6.93;;;;;;;22.49;39.09;99244.72;6685496;29;20689;-83
2024/03/21 11:49:02;;;;;;;10.50;8.47;;;;;;;22.23;39.28;99262.19;6684832;29;20222;-83
2024/03/21 11:52:24;;;;;;;11.87;9.50;;;;;;;22.07;39.90;99248.69;6685759;29;20706;-83
2024/03/21 11:55:48;;;;;;;12.17;9.07;;;;;;;23.09;39.04;99252.22;6684868;29;20267;-83
2024/03/21 11:59:10;;;;;;;11.40;9.43;;;;;;;21.75;39.23;99218.59;6684439;29;20385;-84
2024/03/21 12:02:30;;;;;;;11.00;9.87;;;;;;;21.63;39.65;99264.63;6684751;29;20304;-83
2024/03/21 12:05:52;;;;;;;10.90;8.90;;;;;;;22.31;39.71;99255.38;6684415;29;20255;-83
2024/03/21 12:09:12;;;;;;;11.67;8.80;;;;;;;22.33;38.79;99259.50;6683238;29;20327;-84
2024/03/21 12:12:35;;;;;;;9.27;8.30;;;;;;;23.04;39.19;99252.22;6682602;29;20218;-84
2024/03/21 12:15:57;;;;;;;10.07;8.13;;;;;;;23.20;37.90;99262.19;6683483;29;20261;-83
2024/03/21 12:19:19;;;;;;;9.40;7.93;;;;;;;22.85;38.03;99224.47;6682846;29;20240;-83
2024/03/21 12:22:39;;;;;;;10.90;8.50;;;;;;;22.18;39.48;99275.91;6688403;29;20304;-83
2024/03/21 12:26:01;;;;;;;12.30;9.37;;;;;;;22.54;39.18;99269.47;6686929;29;20266;-84
2024/03/21 12:29:23;;;;;;;11.27;10.00;;;;;;;22.41;39.02;99269.97;6690896;29;20288;-83
2024/03/21 12:32:45;;;;;;;11.20;10.07;;;;;;;21.61;39.20;99233.84;6686582;29;20244;-83
2024/03/21 12:36:06;;;;;;;14.17;10.37;;;;;;;21.78;38.97;99278.44;6688156;29;20243;-83
2024/03/21 12:39:28;;;;;;;13.90;11.87;;;;;;;22.40;39.33;99268.31;6690050;29;20240;-84
2024/03/21 12:42:50;;;;;;;13.20;10.63;;;;;;;23.30;37.24;99278.69;6688977;29;20217;-84
2024/03/21 12:46:12;;;;;;;11.87;10.10;;;;;;;22.88;37.16;99284.41;6692499;29;20250;-84
2024/03/21 12:49:34;;;;;;;10.23;9.13;;;;;;;23.31;36.59;99266.59;6684593;29;20247;-84
2024/03/21 12:52:55;;;;;;;12.53;9.60;;;;;;;22.63;38.01;99264.28;6684333;29;20702;-84
2024/03/21 12:56:17;;;;;;;10.70;9.47;;;;;;;22.91;37.20;99266.53;6685204;29;20302;-84
2024/03/21 12:59:38;;;;;;;9.40;8.33;;;;;;;22.76;36.38;99253.56;6684448;29;20311;-84
2024/03/21 13:03:01;;;;;;;11.33;9.27;;;;;;;22.48;36.96;99267.00;6686125;29;20229;-84
2024/03/21 13:06:24;;;;;;;10.80;9.67;;;;;;;22.91;37.41;99267.38;6683716;29;20385;-84
2024/03/21 13:09:44;;;;;;;13.90;12.47;;;;;;;23.37;37.21;99271.78;6682066;29;20235;-84
2024/03/21 13:13:06;;;;;;;15.67;12.63;;;;;;;23.00;38.18;99276.72;6682804;29;20234;-84
2024/03/21 13:16:27;;;;;;;14.53;12.97;;;;;;;23.00;38.04;99249.22;6684286;29;20581;-84
2024/03/21 13:19:49;;;;;;;15.07;13.57;;;;;;;21.48;40.99;99259.00;6682460;29;20305;-84
2024/03/21 13:23:11;;;;;;;16.70;13.33;;;;;;;22.21;40.37;99266.31;6682640;29;20238;-84
2024/03/21 13:26:32;;;;;;;15.60;12.73;;;;;;;22.16;40.00;99264.38;6684399;29;20279;-84
2024/03/21 13:29:54;;;;;;;15.60;13.60;;;;;;;22.68;39.12;99267.88;6683704;29;20742;-84
2024/03/21 13:33:16;;;;;;;17.33;15.53;;;;;;;22.33;39.94;99280.63;6683446;29;20242;-82
2024/03/21 13:36:38;;;;;;;22.97;18.23;;;;;;;20.87;41.28;99181.19;6683109;29;20253;-84
2024/03/21 13:39:59;;;;;;;27.53;20.13;;;;;;;21.13;41.80;99279.03;6683018;29;20233;-82
2024/03/21 13:43:21;;;;;;;25.07;22.23;;;;;;;21.28;42.25;99269.84;6683813;29;20274;-82
2024/03/21 13:46:42;;;;;;;26.23;22.83;;;;;;;21.20;42.59;99284.03;6683142;29;20240;-84
2024/03/21 13:50:03;;;;;;;30.07;24.67;;;;;;;20.74;43.41;99269.34;6683018;29;20739;-84
2024/03/21 13:53:26;;;;;;;31.87;25.90;;;;;;;21.24;42.26;99276.94;6683068;29;20278;-84
2024/03/21 13:56:47;;;;;;;27.40;24.37;;;;;;;20.57;42.74;99269.41;6682146;29;20673;-84
2024/03/21 14:00:10;;;;;;;28.23;24.30;;;;;;;20.83;42.94;99285.06;6681514;29;20741;-82
2024/03/21 14:03:30;;;;;;;31.17;25.73;;;;;;;20.92;42.68;99288.19;6681809;29;20349;-82
2024/03/21 14:06:52;;;;;;;30.23;25.00;;;;;;;19.96;43.68;99282.59;6682084;29;20243;-84
2024/03/21 14:10:15;;;;;;;27.50;23.70;;;;;;;20.93;42.58;99287.09;6682193;29;20239;-83
2024/03/21 14:13:36;;;;;;;32.53;23.50;;;;;;;21.65;41.32;99267.09;6682286;29;20232;-82
2024/03/21 14:16:57;;;;;;;28.67;23.60;;;;;;;21.51;40.82;99282.34;6683645;29;20245;-82
2024/03/21 14:20:18;;;;;;;33.83;24.97;;;;;;;21.42;41.39;99293.00;6682817;29;20628;-82
2024/03/21 14:23:40;;;;;;;33.37;25.63;;;;;;;21.23;41.48;99284.63;6683250;29;20730;-82
2024/03/21 14:27:03;;;;;;;29.50;24.57;;;;;;;20.35;42.57;99295.19;6681005;29;20380;-84
2024/03/21 14:30:27;;;;;;;28.40;24.83;;;;;;;20.96;42.32;99294.78;6681106;29;20598;-83
2024/03/21 14:33:49;;;;;;;27.10;24.00;;;;;;;20.71;41.98;99286.28;6695107;29;20667;-83
2024/03/21 14:37:10;;;;;;;32.70;24.80;;;;;;;21.43;40.44;99286.41;6680953;29;20219;-83
2024/03/21 14:40:31;;;;;;;31.33;23.87;;;;;;;20.82;41.39;99290.78;6681914;29;20325;-83
2024/03/21 14:43:53;;;;;;;25.60;22.57;;;;;;;20.85;41.17;99310.28;6683069;29;20219;-83
2024/03/21 15:28:20;;;;;;;10.27;8.17;;;;;;;20.55;37.21;99323.66;6987061;28;20539;-85
2024/03/21 15:31:42;;;;;;;10.50;7.47;;;;;;;20.90;36.64;99313.09;6988500;28;20289;-84
2024/03/21 15:35:04;;;;;;;12.73;8.27;;;;;;;21.00;36.37;99317.88;6988166;28;20295;-84
2024/03/21 15:38:25;;;;;;;9.90;8.33;;;;;;;20.74;36.98;99264.66;6991226;28;20330;-82
2024/03/21 15:41:46;;;;;;;9.13;7.90;;;;;;;21.08;37.42;99310.81;6991050;28;20202;-83
2024/03/21 15:45:11;;;;;;;9.33;7.87;;;;;;;21.35;36.92;99327.22;6992157;28;20689;-83
2024/03/21 15:48:32;;;;;;;10.33;7.80;;;;;;;20.99;36.93;99300.56;6991655;28;20223;-83
2024/03/21 15:51:54;;;;;;;11.70;8.40;;;;;;;20.65;37.94;99314.72;6991639;28;20609;-83
2024/03/21 15:55:17;;;;;;;10.33;7.10;;;;;;;20.91;37.79;99319.41;6991879;28;20559;-83
2024/03/21 15:58:37;;;;;;;10.57;7.20;;;;;;;21.47;37.25;99311.41;6992238;27;20233;-83
2024/03/21 16:02:00;;;;;;;9.07;7.50;;;;;;;21.54;37.04;99317.53;6991395;28;20218;-83
2024/03/21 16:05:21;;;;;;;7.70;6.50;;;;;;;21.33;37.58;99321.19;6991556;28;20289;-82
2024/03/21 16:08:42;;;;;;;6.80;6.13;;;;;;;21.27;37.15;99285.75;6992179;27;20222;-82
2024/03/21 16:12:04;;;;;;;8.53;6.03;;;;;;;21.42;36.78;99328.66;6990342;28;20281;-83
2024/03/21 16:15:27;;;;;;;10.20;6.47;;;;;;;20.82;37.30;99313.53;6990368;28;20383;-83
2024/03/21 16:18:50;;;;;;;10.10;5.57;;;;;;;20.69;38.04;99319.41;6989652;27;20222;-83
2024/03/21 16:22:11;;;;;;;9.47;6.00;;;;;;;20.87;37.67;99334.69;6989449;27;20199;-82
2024/03/21 16:25:32;;;;;;;6.97;6.10;;;;;;;20.93;37.36;99333.69;6990454;27;20238;-83
2024/03/21 16:28:54;;;;;;;7.37;5.80;;;;;;;20.73;37.67;99338.91;6973414;28;20654;-83
2024/03/21 16:32:15;;;;;;;6.83;5.70;;;;;;;20.94;37.70;99347.13;6971278;28;20232;-83
2024/03/21 16:35:38;;;;;;;7.80;6.07;;;;;;;19.96;38.18;99266.19;6970788;28;20231;-83
2024/03/21 16:39:00;;;;;;;7.00;5.20;;;;;;;20.48;38.73;99349.59;6970706;28;20363;-83
2024/03/21 16:42:22;;;;;;;8.30;5.73;;;;;;;20.77;38.50;99366.38;6972583;28;20214;-83